Terminal Aerodrome Forecast
Issued by NWS Cheyenne, WY

Home | Current Version | Previous Version | Text Only | Print | Product List | Glossary On
Versions: 1 2 3 4 5 6 7 8 9 10 11 12 13 14 15 16 17
000
FTUS45 KCYS 252125 AAB
TAFCYS
TAF AMD
KCYS 252125Z 2521/2618 33020G30KT P6SM VCSH SCT050
     FM260300 36018G25KT P6SM OVC015
     FM260800 32011KT P6SM BKN250=

USA.gov is the U.S. government's official web portal to all federal, state and local government web resources and services.